sensor_id;sensor_type;location;lat;lon;timestamp;temperature;humidity
77467;DHT22;66564;42.482;25.548;2024-02-04T00:02:07;6.75;58.54
77467;DHT22;66564;42.482;25.548;2024-02-04T00:04:35;6.68;58.46
77467;DHT22;66564;42.482;25.548;2024-02-04T00:07:01;6.71;58.76
77467;DHT22;66564;42.482;25.548;2024-02-04T00:09:26;6.72;58.78
77467;DHT22;66564;42.482;25.548;2024-02-04T00:11:54;6.73;59.16
77467;DHT22;66564;42.482;25.548;2024-02-04T00:14:19;6.75;59.26
77467;DHT22;66564;42.482;25.548;2024-02-04T00:16:45;6.78;59.21
77467;DHT22;66564;42.482;25.548;2024-02-04T00:19:10;6.81;59.02
77467;DHT22;66564;42.482;25.548;2024-02-04T00:21:36;6.81;59.05
77467;DHT22;66564;42.482;25.548;2024-02-04T00:24:01;6.82;59.08
77467;DHT22;66564;42.482;25.548;2024-02-04T00:26:32;6.85;59.21
77467;DHT22;66564;42.482;25.548;2024-02-04T00:29:00;6.82;59.05
77467;DHT22;66564;42.482;25.548;2024-02-04T00:31:26;6.83;59.20
77467;DHT22;66564;42.482;25.548;2024-02-04T00:33:51;6.85;59.21
77467;DHT22;66564;42.482;25.548;2024-02-04T00:36:20;6.82;59.25
77467;DHT22;66564;42.482;25.548;2024-02-04T00:38:50;6.79;59.53
77467;DHT22;66564;42.482;25.548;2024-02-04T00:41:16;6.78;59.59
77467;DHT22;66564;42.482;25.548;2024-02-04T00:43:41;6.76;59.67
77467;DHT22;66564;42.482;25.548;2024-02-04T00:46:07;6.72;59.85
77467;DHT22;66564;42.482;25.548;2024-02-04T00:48:38;6.73;59.87
77467;DHT22;66564;42.482;25.548;2024-02-04T00:51:05;6.76;60.02
77467;DHT22;66564;42.482;25.548;2024-02-04T00:53:31;6.78;59.95
77467;DHT22;66564;42.482;25.548;2024-02-04T00:56:03;6.81;60.19
77467;DHT22;66564;42.482;25.548;2024-02-04T00:58:29;6.75;60.22
77467;DHT22;66564;42.482;25.548;2024-02-04T01:00:54;6.72;60.59
77467;DHT22;66564;42.482;25.548;2024-02-04T01:03:20;6.65;60.66
77467;DHT22;66564;42.482;25.548;2024-02-04T01:05:47;6.62;60.76
77467;DHT22;66564;42.482;25.548;2024-02-04T01:08:16;6.61;60.77
77467;DHT22;66564;42.482;25.548;2024-02-04T01:10:41;6.58;61.18
77467;DHT22;66564;42.482;25.548;2024-02-04T01:13:12;6.61;61.52
77467;DHT22;66564;42.482;25.548;2024-02-04T01:15:40;6.61;61.58
77467;DHT22;66564;42.482;25.548;2024-02-04T01:18:06;6.58;61.90
77467;DHT22;66564;42.482;25.548;2024-02-04T01:20:31;6.58;61.62
77467;DHT22;66564;42.482;25.548;2024-02-04T01:23:00;6.64;61.88
77467;DHT22;66564;42.482;25.548;2024-02-04T01:25:25;6.65;61.70
77467;DHT22;66564;42.482;25.548;2024-02-04T01:27:53;6.67;61.84
77467;DHT22;66564;42.482;25.548;2024-02-04T01:30:19;6.68;61.92
77467;DHT22;66564;42.482;25.548;2024-02-04T01:32:44;6.71;62.00
77467;DHT22;66564;42.482;25.548;2024-02-04T01:35:12;6.67;61.95
77467;DHT22;66564;42.482;25.548;2024-02-04T01:37:37;6.62;61.95
77467;DHT22;66564;42.482;25.548;2024-02-04T01:40:03;6.55;61.76
77467;DHT22;66564;42.482;25.548;2024-02-04T01:42:33;6.51;62.10
77467;DHT22;66564;42.482;25.548;2024-02-04T01:45:00;6.46;62.06
77467;DHT22;66564;42.482;25.548;2024-02-04T01:47:25;6.41;62.05
77467;DHT22;66564;42.482;25.548;2024-02-04T01:49:54;6.34;61.93
77467;DHT22;66564;42.482;25.548;2024-02-04T01:52:19;6.24;62.05
77467;DHT22;66564;42.482;25.548;2024-02-04T01:54:44;6.21;62.27
77467;DHT22;66564;42.482;25.548;2024-02-04T01:57:10;6.18;62.55
77467;DHT22;66564;42.482;25.548;2024-02-04T01:59:38;6.14;62.62
77467;DHT22;66564;42.482;25.548;2024-02-04T02:02:05;6.14;62.91
77467;DHT22;66564;42.482;25.548;2024-02-04T02:04:31;6.17;62.91
77467;DHT22;66564;42.482;25.548;2024-02-04T02:06:56;6.18;63.30
77467;DHT22;66564;42.482;25.548;2024-02-04T02:09:24;6.17;63.39
77467;DHT22;66564;42.482;25.548;2024-02-04T02:12:00;6.17;63.50
77467;DHT22;66564;42.482;25.548;2024-02-04T02:14:30;6.22;63.46
77467;DHT22;66564;42.482;25.548;2024-02-04T02:17:05;6.27;63.48
77467;DHT22;66564;42.482;25.548;2024-02-04T02:22:28;6.41;64.45
77467;DHT22;66564;42.482;25.548;2024-02-04T02:24:56;6.44;64.44
77467;DHT22;66564;42.482;25.548;2024-02-04T02:27:22;6.48;64.38
77467;DHT22;66564;42.482;25.548;2024-02-04T02:29:53;6.51;64.45
77467;DHT22;66564;42.482;25.548;2024-02-04T02:32:21;6.53;64.14
77467;DHT22;66564;42.482;25.548;2024-02-04T02:34:47;6.55;64.41
77467;DHT22;66564;42.482;25.548;2024-02-04T02:43:04;6.65;63.94
77467;DHT22;66564;42.482;25.548;2024-02-04T02:45:34;6.68;63.76
77467;DHT22;66564;42.482;25.548;2024-02-04T02:48:00;6.67;63.79
77467;DHT22;66564;42.482;25.548;2024-02-04T02:50:26;6.72;63.83
77467;DHT22;66564;42.482;25.548;2024-02-04T02:52:55;6.78;63.69
77467;DHT22;66564;42.482;25.548;2024-02-04T02:55:26;6.73;63.43
77467;DHT22;66564;42.482;25.548;2024-02-04T02:57:55;6.78;63.39
77467;DHT22;66564;42.482;25.548;2024-02-04T03:00:25;6.78;63.71
77467;DHT22;66564;42.482;25.548;2024-02-04T03:02:51;6.78;63.91
77467;DHT22;66564;42.482;25.548;2024-02-04T03:05:18;6.82;63.54
77467;DHT22;66564;42.482;25.548;2024-02-04T03:07:44;6.81;63.73
77467;DHT22;66564;42.482;25.548;2024-02-04T03:10:10;6.83;63.78
77467;DHT22;66564;42.482;25.548;2024-02-04T03:12:35;6.82;63.83
77467;DHT22;66564;42.482;25.548;2024-02-04T03:15:01;6.86;63.82
77467;DHT22;66564;42.482;25.548;2024-02-04T03:17:26;6.83;63.71
77467;DHT22;66564;42.482;25.548;2024-02-04T03:19:57;6.82;63.65
77467;DHT22;66564;42.482;25.548;2024-02-04T03:22:22;6.83;63.60
77467;DHT22;66564;42.482;25.548;2024-02-04T03:24:48;6.85;63.55
77467;DHT22;66564;42.482;25.548;2024-02-04T03:27:15;6.86;63.80
77467;DHT22;66564;42.482;25.548;2024-02-04T03:29:40;6.86;63.62
77467;DHT22;66564;42.482;25.548;2024-02-04T03:32:10;6.88;63.45
77467;DHT22;66564;42.482;25.548;2024-02-04T03:34:36;6.85;63.80
77467;DHT22;66564;42.482;25.548;2024-02-04T03:37:01;6.91;63.86
77467;DHT22;66564;42.482;25.548;2024-02-04T03:39:27;6.88;63.77
77467;DHT22;66564;42.482;25.548;2024-02-04T03:41:52;6.92;63.73
77467;DHT22;66564;42.482;25.548;2024-02-04T03:44:18;6.92;63.69
77467;DHT22;66564;42.482;25.548;2024-02-04T03:46:47;6.91;63.81
77467;DHT22;66564;42.482;25.548;2024-02-04T03:49:14;6.92;63.80
77467;DHT22;66564;42.482;25.548;2024-02-04T03:51:39;6.93;63.82
77467;DHT22;66564;42.482;25.548;2024-02-04T03:54:05;6.91;63.91
77467;DHT22;66564;42.482;25.548;2024-02-04T03:56:35;6.93;63.82
77467;DHT22;66564;42.482;25.548;2024-02-04T03:59:01;6.95;63.87
77467;DHT22;66564;42.482;25.548;2024-02-04T04:01:31;6.97;64.24
77467;DHT22;66564;42.482;25.548;2024-02-04T04:03:57;7.00;64.60
77467;DHT22;66564;42.482;25.548;2024-02-04T04:06:22;6.97;65.04
77467;DHT22;66564;42.482;25.548;2024-02-04T04:08:53;7.00;64.52
77467;DHT22;66564;42.482;25.548;2024-02-04T04:11:19;7.00;64.29
77467;DHT22;66564;42.482;25.548;2024-02-04T04:13:44;7.07;64.70
77467;DHT22;66564;42.482;25.548;2024-02-04T04:16:10;7.07;65.12
77467;DHT22;66564;42.482;25.548;2024-02-04T04:18:35;7.16;64.83
77467;DHT22;66564;42.482;25.548;2024-02-04T04:21:01;7.19;64.25
77467;DHT22;66564;42.482;25.548;2024-02-04T04:23:26;7.26;63.93
77467;DHT22;66564;42.482;25.548;2024-02-04T04:25:52;7.29;63.94
77467;DHT22;66564;42.482;25.548;2024-02-04T04:28:20;7.33;63.99
77467;DHT22;66564;42.482;25.548;2024-02-04T04:30:46;7.39;63.89
77467;DHT22;66564;42.482;25.548;2024-02-04T04:33:11;7.40;63.54
77467;DHT22;66564;42.482;25.548;2024-02-04T04:35:37;7.42;63.60
77467;DHT22;66564;42.482;25.548;2024-02-04T04:38:03;7.44;63.61
77467;DHT22;66564;42.482;25.548;2024-02-04T04:40:31;7.46;63.63
77467;DHT22;66564;42.482;25.548;2024-02-04T04:42:57;7.46;63.53
77467;DHT22;66564;42.482;25.548;2024-02-04T04:45:25;7.44;63.16
77467;DHT22;66564;42.482;25.548;2024-02-04T04:47:53;7.40;63.16
77467;DHT22;66564;42.482;25.548;2024-02-04T04:50:18;7.39;62.97
77467;DHT22;66564;42.482;25.548;2024-02-04T04:52:44;7.39;63.05
77467;DHT22;66564;42.482;25.548;2024-02-04T04:55:12;7.36;62.96
77467;DHT22;66564;42.482;25.548;2024-02-04T04:57:37;7.31;62.93
77467;DHT22;66564;42.482;25.548;2024-02-04T05:00:03;7.34;62.92
77467;DHT22;66564;42.482;25.548;2024-02-04T05:02:31;7.31;62.90
77467;DHT22;66564;42.482;25.548;2024-02-04T05:05:00;7.24;62.78
77467;DHT22;66564;42.482;25.548;2024-02-04T05:07:25;7.24;62.89
77467;DHT22;66564;42.482;25.548;2024-02-04T05:09:52;7.22;63.20
77467;DHT22;66564;42.482;25.548;2024-02-04T05:12:20;7.19;63.22
77467;DHT22;66564;42.482;25.548;2024-02-04T05:14:45;7.22;63.14
77467;DHT22;66564;42.482;25.548;2024-02-04T05:17:11;7.17;63.19
77467;DHT22;66564;42.482;25.548;2024-02-04T05:19:36;7.16;63.11
77467;DHT22;66564;42.482;25.548;2024-02-04T05:22:05;7.15;63.11
77467;DHT22;66564;42.482;25.548;2024-02-04T05:24:30;7.12;63.04
77467;DHT22;66564;42.482;25.548;2024-02-04T05:26:56;7.10;63.02
77467;DHT22;66564;42.482;25.548;2024-02-04T05:29:21;7.10;63.27
77467;DHT22;66564;42.482;25.548;2024-02-04T05:31:47;7.10;63.24
77467;DHT22;66564;42.482;25.548;2024-02-04T05:34:15;7.10;63.16
77467;DHT22;66564;42.482;25.548;2024-02-04T05:36:43;7.13;63.09
77467;DHT22;66564;42.482;25.548;2024-02-04T05:39:10;7.13;63.22
77467;DHT22;66564;42.482;25.548;2024-02-04T05:41:37;7.12;63.34
77467;DHT22;66564;42.482;25.548;2024-02-04T05:44:09;7.17;63.28
77467;DHT22;66564;42.482;25.548;2024-02-04T05:46:38;7.22;62.99
77467;DHT22;66564;42.482;25.548;2024-02-04T05:49:04;7.23;63.00
77467;DHT22;66564;42.482;25.548;2024-02-04T05:51:32;7.23;62.99
77467;DHT22;66564;42.482;25.548;2024-02-04T05:53:58;7.26;63.01
77467;DHT22;66564;42.482;25.548;2024-02-04T05:56:24;7.33;63.06
77467;DHT22;66564;42.482;25.548;2024-02-04T05:58:49;7.31;62.98
77467;DHT22;66564;42.482;25.548;2024-02-04T06:01:17;7.39;63.03
77467;DHT22;66564;42.482;25.548;2024-02-04T06:03:43;7.42;63.13
77467;DHT22;66564;42.482;25.548;2024-02-04T06:06:13;7.46;63.36
77467;DHT22;66564;42.482;25.548;2024-02-04T06:08:39;7.47;63.36
77467;DHT22;66564;42.482;25.548;2024-02-04T06:11:05;7.56;63.37
77467;DHT22;66564;42.482;25.548;2024-02-04T06:13:30;7.63;62.79
77467;DHT22;66564;42.482;25.548;2024-02-04T06:15:56;7.66;63.11
77467;DHT22;66564;42.482;25.548;2024-02-04T06:18:21;7.69;63.12
77467;DHT22;66564;42.482;25.548;2024-02-04T06:20:47;7.77;62.65
77467;DHT22;66564;42.482;25.548;2024-02-04T06:23:12;7.77;63.09
77467;DHT22;66564;42.482;25.548;2024-02-04T06:25:38;7.85;62.98
77467;DHT22;66564;42.482;25.548;2024-02-04T06:28:06;7.91;62.31
77467;DHT22;66564;42.482;25.548;2024-02-04T06:30:34;7.92;62.79
77467;DHT22;66564;42.482;25.548;2024-02-04T06:33:00;7.97;63.06
77467;DHT22;66564;42.482;25.548;2024-02-04T06:35:25;7.98;63.14
77467;DHT22;66564;42.482;25.548;2024-02-04T06:37:50;8.02;63.19
77467;DHT22;66564;42.482;25.548;2024-02-04T06:40:16;8.06;63.46
77467;DHT22;66564;42.482;25.548;2024-02-04T06:42:41;8.06;63.89
77467;DHT22;66564;42.482;25.548;2024-02-04T06:45:07;8.08;64.18
77467;DHT22;66564;42.482;25.548;2024-02-04T06:47:33;8.12;63.71
77467;DHT22;66564;42.482;25.548;2024-02-04T06:49:58;8.14;63.80
77467;DHT22;66564;42.482;25.548;2024-02-04T06:52:24;8.18;63.97
77467;DHT22;66564;42.482;25.548;2024-02-04T06:54:49;8.24;63.97
77467;DHT22;66564;42.482;25.548;2024-02-04T06:57:18;8.26;64.13
77467;DHT22;66564;42.482;25.548;2024-02-04T06:59:44;8.31;64.25
77467;DHT22;66564;42.482;25.548;2024-02-04T07:02:09;8.34;64.44
77467;DHT22;66564;42.482;25.548;2024-02-04T07:04:35;8.41;64.46
77467;DHT22;66564;42.482;25.548;2024-02-04T07:07:00;8.39;64.93
77467;DHT22;66564;42.482;25.548;2024-02-04T07:09:26;8.45;65.01
77467;DHT22;66564;42.482;25.548;2024-02-04T07:11:51;8.50;64.99
77467;DHT22;66564;42.482;25.548;2024-02-04T07:14:21;8.60;64.35
77467;DHT22;66564;42.482;25.548;2024-02-04T07:16:46;8.66;64.59
77467;DHT22;66564;42.482;25.548;2024-02-04T07:19:12;8.70;64.66
77467;DHT22;66564;42.482;25.548;2024-02-04T07:21:37;8.81;63.96
77467;DHT22;66564;42.482;25.548;2024-02-04T07:24:03;8.90;64.06
77467;DHT22;66564;42.482;25.548;2024-02-04T07:26:31;8.99;63.75
77467;DHT22;66564;42.482;25.548;2024-02-04T07:28:56;9.03;63.97
77467;DHT22;66564;42.482;25.548;2024-02-04T07:31:28;9.06;64.03
77467;DHT22;66564;42.482;25.548;2024-02-04T07:33:53;9.11;64.19
77467;DHT22;66564;42.482;25.548;2024-02-04T07:36:19;9.13;63.75
77467;DHT22;66564;42.482;25.548;2024-02-04T07:38:44;9.19;64.22
77467;DHT22;66564;42.482;25.548;2024-02-04T07:41:15;9.20;64.41
77467;DHT22;66564;42.482;25.548;2024-02-04T07:43:41;9.23;64.45
77467;DHT22;66564;42.482;25.548;2024-02-04T07:46:09;9.21;64.40
77467;DHT22;66564;42.482;25.548;2024-02-04T07:48:34;9.20;64.44
77467;DHT22;66564;42.482;25.548;2024-02-04T07:51:06;9.27;64.45
77467;DHT22;66564;42.482;25.548;2024-02-04T07:53:31;9.24;64.61
77467;DHT22;66564;42.482;25.548;2024-02-04T07:56:02;9.23;64.59
77467;DHT22;66564;42.482;25.548;2024-02-04T07:58:29;9.27;64.30
77467;DHT22;66564;42.482;25.548;2024-02-04T08:00:55;9.33;64.18
77467;DHT22;66564;42.482;25.548;2024-02-04T08:03:20;9.31;64.28
77467;DHT22;66564;42.482;25.548;2024-02-04T08:05:45;9.28;64.15
77467;DHT22;66564;42.482;25.548;2024-02-04T08:08:11;9.31;63.85
77467;DHT22;66564;42.482;25.548;2024-02-04T08:10:37;9.31;64.16
77467;DHT22;66564;42.482;25.548;2024-02-04T08:13:05;9.33;64.15
77467;DHT22;66564;42.482;25.548;2024-02-04T08:15:34;9.34;64.15
77467;DHT22;66564;42.482;25.548;2024-02-04T08:17:59;9.35;64.21
77467;DHT22;66564;42.482;25.548;2024-02-04T08:20:27;9.35;64.06
77467;DHT22;66564;42.482;25.548;2024-02-04T08:22:54;9.37;63.47
77467;DHT22;66564;42.482;25.548;2024-02-04T08:25:19;9.37;62.98
77467;DHT22;66564;42.482;25.548;2024-02-04T08:27:45;9.45;62.68
77467;DHT22;66564;42.482;25.548;2024-02-04T08:30:11;9.51;62.66
77467;DHT22;66564;42.482;25.548;2024-02-04T08:32:38;9.50;62.45
77467;DHT22;66564;42.482;25.548;2024-02-04T08:35:04;9.54;62.25
77467;DHT22;66564;42.482;25.548;2024-02-04T08:37:31;9.67;62.02
77467;DHT22;66564;42.482;25.548;2024-02-04T08:39:59;9.68;61.85
77467;DHT22;66564;42.482;25.548;2024-02-04T08:42:25;9.67;61.58
77467;DHT22;66564;42.482;25.548;2024-02-04T08:44:51;9.71;61.30
77467;DHT22;66564;42.482;25.548;2024-02-04T08:47:17;9.78;60.44
77467;DHT22;66564;42.482;25.548;2024-02-04T08:49:43;9.82;60.14
77467;DHT22;66564;42.482;25.548;2024-02-04T08:52:09;9.79;59.61
77467;DHT22;66564;42.482;25.548;2024-02-04T08:54:34;9.78;59.80
77467;DHT22;66564;42.482;25.548;2024-02-04T08:57:00;9.91;59.61
77467;DHT22;66564;42.482;25.548;2024-02-04T08:59:25;9.94;58.12
77467;DHT22;66564;42.482;25.548;2024-02-04T09:01:51;9.96;58.09
77467;DHT22;66564;42.482;25.548;2024-02-04T09:04:16;10.01;58.20
77467;DHT22;66564;42.482;25.548;2024-02-04T09:06:42;10.06;58.36
77467;DHT22;66564;42.482;25.548;2024-02-04T09:09:07;10.18;58.34
77467;DHT22;66564;42.482;25.548;2024-02-04T09:11:34;10.29;58.37
77467;DHT22;66564;42.482;25.548;2024-02-04T09:14:00;10.39;58.29
77467;DHT22;66564;42.482;25.548;2024-02-04T09:16:25;10.48;57.81
77467;DHT22;66564;42.482;25.548;2024-02-04T09:18:51;10.56;56.98
77467;DHT22;66564;42.482;25.548;2024-02-04T09:21:16;10.66;56.54
77467;DHT22;66564;42.482;25.548;2024-02-04T09:23:42;10.87;56.70
77467;DHT22;66564;42.482;25.548;2024-02-04T09:26:07;10.94;56.27
77467;DHT22;66564;42.482;25.548;2024-02-04T09:28:33;11.04;56.12
77467;DHT22;66564;42.482;25.548;2024-02-04T09:30:59;11.17;55.70
77467;DHT22;66564;42.482;25.548;2024-02-04T09:33:28;11.30;55.69
77467;DHT22;66564;42.482;25.548;2024-02-04T09:35:54;11.39;56.15
77467;DHT22;66564;42.482;25.548;2024-02-04T09:38:20;11.54;55.58
77467;DHT22;66564;42.482;25.548;2024-02-04T09:40:45;11.59;54.27
77467;DHT22;66564;42.482;25.548;2024-02-04T09:43:11;11.68;54.16
77467;DHT22;66564;42.482;25.548;2024-02-04T09:45:38;11.78;54.36
77467;DHT22;66564;42.482;25.548;2024-02-04T09:48:06;11.89;53.62
77467;DHT22;66564;42.482;25.548;2024-02-04T09:50:33;11.98;53.48
77467;DHT22;66564;42.482;25.548;2024-02-04T09:53:02;12.03;53.03
77467;DHT22;66564;42.482;25.548;2024-02-04T09:55:29;12.10;51.50
77467;DHT22;66564;42.482;25.548;2024-02-04T09:57:56;12.10;51.72
77467;DHT22;66564;42.482;25.548;2024-02-04T10:00:21;12.13;52.02
77467;DHT22;66564;42.482;25.548;2024-02-04T10:02:50;12.12;51.82
77467;DHT22;66564;42.482;25.548;2024-02-04T10:05:15;12.12;51.10
77467;DHT22;66564;42.482;25.548;2024-02-04T10:07:41;12.10;50.85
77467;DHT22;66564;42.482;25.548;2024-02-04T10:10:07;12.08;51.36
77467;DHT22;66564;42.482;25.548;2024-02-04T10:12:33;12.05;51.39
77467;DHT22;66564;42.482;25.548;2024-02-04T10:15:01;12.03;50.64
77467;DHT22;66564;42.482;25.548;2024-02-04T10:17:28;11.99;51.31
77467;DHT22;66564;42.482;25.548;2024-02-04T10:19:54;11.99;51.33
77467;DHT22;66564;42.482;25.548;2024-02-04T10:22:19;11.98;51.24
77467;DHT22;66564;42.482;25.548;2024-02-04T10:24:44;11.98;50.95
77467;DHT22;66564;42.482;25.548;2024-02-04T10:27:17;11.95;50.92
77467;DHT22;66564;42.482;25.548;2024-02-04T10:29:42;11.88;49.57
77467;DHT22;66564;42.482;25.548;2024-02-04T10:32:08;11.78;50.31
77467;DHT22;66564;42.482;25.548;2024-02-04T10:34:38;11.74;50.57
77467;DHT22;66564;42.482;25.548;2024-02-04T10:37:04;11.67;50.72
77467;DHT22;66564;42.482;25.548;2024-02-04T10:39:30;11.59;51.70
77467;DHT22;66564;42.482;25.548;2024-02-04T10:41:56;11.55;52.23
77467;DHT22;66564;42.482;25.548;2024-02-04T10:44:28;11.48;53.01
77467;DHT22;66564;42.482;25.548;2024-02-04T10:46:57;11.41;52.93
77467;DHT22;66564;42.482;25.548;2024-02-04T10:49:26;11.35;52.78
77467;DHT22;66564;42.482;25.548;2024-02-04T10:51:54;11.28;53.08
77467;DHT22;66564;42.482;25.548;2024-02-04T10:54:22;11.24;54.39
77467;DHT22;66564;42.482;25.548;2024-02-04T10:56:59;11.06;52.91
77467;DHT22;66564;42.482;25.548;2024-02-04T10:59:27;11.07;53.14
77467;DHT22;66564;42.482;25.548;2024-02-04T11:01:55;11.11;53.52
77467;DHT22;66564;42.482;25.548;2024-02-04T11:04:22;11.08;53.82
77467;DHT22;66564;42.482;25.548;2024-02-04T11:06:49;11.11;53.62
77467;DHT22;66564;42.482;25.548;2024-02-04T11:09:14;11.13;53.03
77467;DHT22;66564;42.482;25.548;2024-02-04T11:11:42;11.08;52.98
77467;DHT22;66564;42.482;25.548;2024-02-04T11:14:19;11.14;52.51
77467;DHT22;66564;42.482;25.548;2024-02-04T11:19:23;11.07;52.83
77467;DHT22;66564;42.482;25.548;2024-02-04T11:27:33;11.07;53.20
77467;DHT22;66564;42.482;25.548;2024-02-04T11:30:02;11.15;56.58
77467;DHT22;66564;42.482;25.548;2024-02-04T11:32:29;11.08;54.33
77467;DHT22;66564;42.482;25.548;2024-02-04T11:34:55;11.11;53.72
77467;DHT22;66564;42.482;25.548;2024-02-04T11:37:21;11.10;53.55
77467;DHT22;66564;42.482;25.548;2024-02-04T11:39:53;11.07;53.61
77467;DHT22;66564;42.482;25.548;2024-02-04T11:42:19;11.10;53.72
77467;DHT22;66564;42.482;25.548;2024-02-04T11:44:47;11.06;53.90
77467;DHT22;66564;42.482;25.548;2024-02-04T11:47:23;11.10;53.86
77467;DHT22;66564;42.482;25.548;2024-02-04T11:49:57;11.13;53.57
77467;DHT22;66564;42.482;25.548;2024-02-04T11:52:22;11.13;53.74
77467;DHT22;66564;42.482;25.548;2024-02-04T11:54:48;11.15;53.68
77467;DHT22;66564;42.482;25.548;2024-02-04T11:57:15;11.20;53.39
77467;DHT22;66564;42.482;25.548;2024-02-04T11:59:42;11.20;53.69
77467;DHT22;66564;42.482;25.548;2024-02-04T12:02:07;11.17;53.56
77467;DHT22;66564;42.482;25.548;2024-02-04T12:04:33;11.17;53.87
77467;DHT22;66564;42.482;25.548;2024-02-04T12:07:03;11.18;54.06
77467;DHT22;66564;42.482;25.548;2024-02-04T12:09:29;11.17;54.25
77467;DHT22;66564;42.482;25.548;2024-02-04T12:11:54;11.20;54.19
77467;DHT22;66564;42.482;25.548;2024-02-04T12:14:21;11.21;54.01
77467;DHT22;66564;42.482;25.548;2024-02-04T12:16:46;11.20;54.16
77467;DHT22;66564;42.482;25.548;2024-02-04T12:19:12;11.28;53.90
77467;DHT22;66564;42.482;25.548;2024-02-04T12:21:37;11.32;53.91
77467;DHT22;66564;42.482;25.548;2024-02-04T12:24:03;11.34;53.94
77467;DHT22;66564;42.482;25.548;2024-02-04T12:26:29;11.41;54.04
77467;DHT22;66564;42.482;25.548;2024-02-04T12:28:55;11.47;53.80
77467;DHT22;66564;42.482;25.548;2024-02-04T12:31:25;11.38;54.12
77467;DHT22;66564;42.482;25.548;2024-02-04T12:33:52;11.38;54.15
77467;DHT22;66564;42.482;25.548;2024-02-04T12:36:19;11.42;54.17
77467;DHT22;66564;42.482;25.548;2024-02-04T12:38:51;11.44;54.18
77467;DHT22;66564;42.482;25.548;2024-02-04T12:41:17;11.55;54.24
77467;DHT22;66564;42.482;25.548;2024-02-04T12:43:49;11.79;54.02
77467;DHT22;66564;42.482;25.548;2024-02-04T12:46:14;11.96;54.25
77467;DHT22;66564;42.482;25.548;2024-02-04T12:48:39;12.12;53.63
77467;DHT22;66564;42.482;25.548;2024-02-04T12:51:05;12.25;53.71
77467;DHT22;66564;42.482;25.548;2024-02-04T12:53:30;12.46;53.88
77467;DHT22;66564;42.482;25.548;2024-02-04T12:56:02;12.66;54.55
77467;DHT22;66564;42.482;25.548;2024-02-04T12:58:28;12.81;53.54
77467;DHT22;66564;42.482;25.548;2024-02-04T13:01:03;12.94;52.25
77467;DHT22;66564;42.482;25.548;2024-02-04T13:03:30;12.97;51.05
77467;DHT22;66564;42.482;25.548;2024-02-04T13:05:58;13.04;51.21
77467;DHT22;66564;42.482;25.548;2024-02-04T13:08:24;13.08;50.78
77467;DHT22;66564;42.482;25.548;2024-02-04T13:10:56;13.11;50.54
77467;DHT22;66564;42.482;25.548;2024-02-04T13:13:22;13.14;50.19
77467;DHT22;66564;42.482;25.548;2024-02-04T13:15:50;13.15;50.56
77467;DHT22;66564;42.482;25.548;2024-02-04T13:18:16;13.12;49.71
77467;DHT22;66564;42.482;25.548;2024-02-04T13:20:42;13.10;49.80
77467;DHT22;66564;42.482;25.548;2024-02-04T13:23:08;13.07;49.59
77467;DHT22;66564;42.482;25.548;2024-02-04T13:25:34;13.04;49.71
77467;DHT22;66564;42.482;25.548;2024-02-04T13:28:00;13.04;49.56
77467;DHT22;66564;42.482;25.548;2024-02-04T13:30:26;12.97;49.53
77467;DHT22;66564;42.482;25.548;2024-02-04T13:32:52;12.93;49.62
77467;DHT22;66564;42.482;25.548;2024-02-04T13:35:17;12.87;49.62
77467;DHT22;66564;42.482;25.548;2024-02-04T13:37:45;12.84;49.95
77467;DHT22;66564;42.482;25.548;2024-02-04T13:40:20;12.76;49.62
77467;DHT22;66564;42.482;25.548;2024-02-04T13:42:46;12.61;49.84
77467;DHT22;66564;42.482;25.548;2024-02-04T13:45:12;12.61;50.21
77467;DHT22;66564;42.482;25.548;2024-02-04T13:47:41;12.60;50.55
77467;DHT22;66564;42.482;25.548;2024-02-04T13:50:08;12.59;50.56
77467;DHT22;66564;42.482;25.548;2024-02-04T13:52:34;12.61;50.78
77467;DHT22;66564;42.482;25.548;2024-02-04T13:55:00;12.57;50.80
77467;DHT22;66564;42.482;25.548;2024-02-04T13:57:26;12.57;50.85
77467;DHT22;66564;42.482;25.548;2024-02-04T13:59:51;12.54;50.54
77467;DHT22;66564;42.482;25.548;2024-02-04T14:02:17;12.53;50.21
77467;DHT22;66564;42.482;25.548;2024-02-04T14:04:42;12.43;50.13
77467;DHT22;66564;42.482;25.548;2024-02-04T14:07:08;12.37;50.11
77467;DHT22;66564;42.482;25.548;2024-02-04T14:09:34;12.32;50.18
77467;DHT22;66564;42.482;25.548;2024-02-04T14:11:59;12.26;50.31
77467;DHT22;66564;42.482;25.548;2024-02-04T14:14:25;12.23;50.55
77467;DHT22;66564;42.482;25.548;2024-02-04T14:16:50;12.18;50.85
77467;DHT22;66564;42.482;25.548;2024-02-04T14:19:16;12.10;50.91
77467;DHT22;66564;42.482;25.548;2024-02-04T14:21:42;12.05;50.86
77467;DHT22;66564;42.482;25.548;2024-02-04T14:24:08;12.05;51.09
77467;DHT22;66564;42.482;25.548;2024-02-04T14:26:33;12.00;51.34
77467;DHT22;66564;42.482;25.548;2024-02-04T14:29:00;12.00;51.38
77467;DHT22;66564;42.482;25.548;2024-02-04T14:31:26;12.02;51.46
77467;DHT22;66564;42.482;25.548;2024-02-04T14:33:51;12.06;51.07
77467;DHT22;66564;42.482;25.548;2024-02-04T14:36:17;12.03;50.91
77467;DHT22;66564;42.482;25.548;2024-02-04T14:38:42;12.05;50.88
77467;DHT22;66564;42.482;25.548;2024-02-04T14:41:08;12.03;50.85
77467;DHT22;66564;42.482;25.548;2024-02-04T14:43:35;12.02;51.02
77467;DHT22;66564;42.482;25.548;2024-02-04T14:46:01;12.00;50.86
77467;DHT22;66564;42.482;25.548;2024-02-04T14:48:26;12.00;50.90
77467;DHT22;66564;42.482;25.548;2024-02-04T14:50:52;11.98;50.93
77467;DHT22;66564;42.482;25.548;2024-02-04T14:53:18;11.96;51.13
77467;DHT22;66564;42.482;25.548;2024-02-04T14:55:43;11.96;51.07
77467;DHT22;66564;42.482;25.548;2024-02-04T14:58:11;11.95;51.06
77467;DHT22;66564;42.482;25.548;2024-02-04T15:00:36;11.92;51.12
77467;DHT22;66564;42.482;25.548;2024-02-04T15:03:02;11.89;50.91
77467;DHT22;66564;42.482;25.548;2024-02-04T15:05:27;11.89;50.60
77467;DHT22;66564;42.482;25.548;2024-02-04T15:07:53;11.83;50.64
77467;DHT22;66564;42.482;25.548;2024-02-04T15:10:19;11.79;50.78
77467;DHT22;66564;42.482;25.548;2024-02-04T15:12:45;11.74;50.93
77467;DHT22;66564;42.482;25.548;2024-02-04T15:15:11;11.69;51.10
77467;DHT22;66564;42.482;25.548;2024-02-04T15:17:36;11.57;51.68
77467;DHT22;66564;42.482;25.548;2024-02-04T15:20:03;11.51;51.77
77467;DHT22;66564;42.482;25.548;2024-02-04T15:22:29;11.35;52.29
77467;DHT22;66564;42.482;25.548;2024-02-04T15:24:55;11.30;52.32
77467;DHT22;66564;42.482;25.548;2024-02-04T15:27:21;11.30;52.32
77467;DHT22;66564;42.482;25.548;2024-02-04T15:29:48;11.23;52.47
77467;DHT22;66564;42.482;25.548;2024-02-04T15:32:17;11.13;52.55
77467;DHT22;66564;42.482;25.548;2024-02-04T15:34:42;11.08;52.29
77467;DHT22;66564;42.482;25.548;2024-02-04T15:37:08;10.96;52.52
77467;DHT22;66564;42.482;25.548;2024-02-04T15:39:35;10.90;52.68